createdAt,value
2023-03-13T03:14:14.401Z,6.40
2023-03-13T03:16:45.814Z,7.78
2023-03-13T03:19:13.597Z,6.70
2023-03-13T03:21:41.217Z,6.93
2023-03-13T03:24:09.324Z,5.85
2023-03-13T03:26:37.520Z,6.68
2023-03-13T03:29:11.724Z,6.47
2023-03-13T03:31:40.899Z,6.45
2023-03-13T03:34:09.920Z,6.10
2023-03-13T03:36:37.589Z,7.25
2023-03-13T03:39:05.561Z,6.50
2023-03-13T03:41:33.802Z,6.72
2023-03-13T03:44:01.522Z,5.55
2023-03-13T03:46:39.645Z,9.80
2023-03-13T03:49:07.379Z,7.47
2023-03-13T03:51:35.284Z,6.45
2023-03-13T03:54:02.963Z,6.53
2023-03-13T03:56:32.916Z,6.68
2023-03-13T03:59:01.569Z,6.97
2023-03-13T04:02:04.635Z,5.75
2023-03-13T04:04:33.670Z,6.53
2023-03-13T04:07:11.118Z,7.47
2023-03-13T04:09:40.401Z,10.55
2023-03-13T04:12:10.332Z,10.57
2023-03-13T04:14:43.127Z,11.90
2023-03-13T04:17:13.122Z,9.63
2023-03-13T04:19:42.311Z,8.85
2023-03-13T04:22:10.118Z,7.68
2023-03-13T04:24:40.896Z,7.72
2023-03-13T04:27:09.496Z,8.02
2023-03-13T04:29:37.205Z,8.23
2023-03-13T04:32:16.234Z,8.65
2023-03-13T04:35:19.454Z,9.60
2023-03-13T04:38:07.581Z,7.93
2023-03-13T04:40:50.489Z,7.30
2023-03-13T04:43:44.213Z,7.93
2023-03-13T04:46:38.104Z,7.00
2023-03-13T04:49:24.191Z,7.88
2023-03-13T04:51:52.081Z,11.07
2023-03-13T04:54:38.098Z,8.23
2023-03-13T04:57:18.614Z,8.18
2023-03-13T05:00:08.247Z,8.07
2023-03-13T05:02:59.098Z,7.97
2023-03-13T05:05:45.301Z,8.25
2023-03-13T05:08:40.858Z,7.93
2023-03-13T05:11:27.562Z,9.93
2023-03-13T05:14:11.192Z,7.75
2023-03-13T05:17:01.570Z,8.23
2023-03-13T05:19:29.600Z,6.18
2023-03-13T05:22:00.008Z,8.07
2023-03-13T05:24:46.264Z,8.55
2023-03-13T05:27:36.552Z,7.82
2023-03-13T05:30:30.326Z,7.55
2023-03-13T05:33:27.580Z,6.25
2023-03-13T05:36:24.474Z,7.47
2023-03-13T05:39:07.229Z,6.88
2023-03-13T05:41:43.819Z,6.25
2023-03-13T05:44:34.607Z,8.02
2023-03-13T05:47:35.139Z,7.13
2023-03-13T05:50:23.293Z,6.65
2023-03-13T05:53:09.780Z,9.07
2023-03-13T05:55:48.562Z,7.82
2023-03-13T05:58:34.972Z,7.15
2023-03-13T06:01:30.783Z,7.18
2023-03-13T06:04:21.265Z,7.60
2023-03-13T06:06:49.214Z,7.03
2023-03-13T06:09:18.143Z,6.93
2023-03-13T06:11:46.284Z,7.03
2023-03-13T06:14:14.345Z,6.55
2023-03-13T06:16:48.279Z,7.38
2023-03-13T06:19:19.031Z,6.95
2023-03-13T06:21:46.839Z,7.60
2023-03-13T06:24:14.526Z,5.47
2023-03-13T06:26:42.546Z,7.63
2023-03-13T06:29:11.590Z,5.35
2023-03-13T06:31:39.526Z,5.43
2023-03-13T06:34:07.344Z,5.93
2023-03-13T06:36:35.200Z,7.13
2023-03-13T06:39:03.467Z,6.13
2023-03-13T06:41:31.250Z,6.30
2023-03-13T06:43:59.036Z,7.03
2023-03-13T06:46:26.928Z,5.47
2023-03-13T06:48:54.721Z,5.60
2023-03-13T06:51:22.664Z,5.70
2023-03-13T06:53:52.601Z,5.28
2023-03-13T06:56:21.948Z,5.30
2023-03-13T06:58:50.415Z,5.10
2023-03-13T07:01:18.552Z,5.68
2023-03-13T07:03:50.147Z,5.63
2023-03-13T07:06:18.641Z,5.82
2023-03-13T07:08:46.447Z,5.95
2023-03-13T07:11:15.268Z,5.35
2023-03-13T07:13:43.063Z,5.45
2023-03-13T07:16:13.542Z,4.63
2023-03-13T07:18:47.388Z,4.57
2023-03-13T07:21:15.290Z,5.60
2023-03-13T07:23:43.038Z,5.68
2023-03-13T07:26:13.569Z,4.63
2023-03-13T07:28:41.789Z,6.47
2023-03-13T07:31:09.509Z,4.40
2023-03-13T07:33:37.464Z,4.60
2023-03-13T07:36:05.635Z,4.35
2023-03-13T07:38:34.000Z,4.05
2023-03-13T07:41:01.813Z,5.00
2023-03-13T07:43:32.252Z,4.97
2023-03-13T07:46:11.871Z,3.60
2023-03-13T07:48:41.452Z,4.60
2023-03-13T07:51:13.404Z,5.30
2023-03-13T07:53:41.089Z,4.90
2023-03-13T07:56:11.969Z,6.03
2023-03-13T07:58:41.088Z,4.55
2023-03-13T08:01:24.330Z,4.25
2023-03-13T08:03:56.088Z,6.53
2023-03-13T08:06:26.447Z,4.68
2023-03-13T08:08:57.562Z,4.10
2023-03-13T08:11:27.277Z,4.60
2023-03-13T08:13:55.671Z,3.65
2023-03-13T08:16:29.758Z,3.78
2023-03-13T08:18:58.776Z,5.00
2023-03-13T08:21:28.701Z,4.80
2023-03-13T08:23:59.410Z,3.90
2023-03-13T08:26:29.561Z,3.97
2023-03-13T08:28:59.958Z,3.28
2023-03-13T08:31:36.883Z,3.70
2023-03-13T08:34:04.950Z,4.22
2023-03-13T08:36:35.373Z,4.40
2023-03-13T08:39:10.286Z,4.47
2023-03-13T08:41:38.300Z,3.75
2023-03-13T08:44:06.401Z,3.83
2023-03-13T08:46:36.030Z,4.45
2023-03-13T08:49:05.865Z,3.88
2023-03-13T08:51:34.663Z,3.53
2023-03-13T08:54:03.540Z,4.38
2023-03-13T08:56:32.204Z,3.78
2023-03-13T08:59:01.719Z,4.18
2023-03-13T09:01:31.425Z,4.28
2023-03-13T09:04:03.570Z,3.83
2023-03-13T09:06:33.984Z,5.35
2023-03-13T09:09:01.838Z,3.65
2023-03-13T09:11:29.886Z,3.97
2023-03-13T09:13:59.554Z,4.45
2023-03-13T09:16:29.461Z,2.85
2023-03-13T09:18:58.121Z,3.75
2023-03-13T09:21:29.868Z,3.67
2023-03-13T09:23:57.856Z,2.78
2023-03-13T09:26:27.935Z,3.45
2023-03-13T09:28:56.176Z,3.60
2023-03-13T09:31:29.018Z,3.60
2023-03-13T09:33:56.853Z,3.78
2023-03-13T09:36:25.261Z,3.40
2023-03-13T09:38:55.047Z,2.95
2023-03-13T09:41:57.068Z,3.75
2023-03-13T09:44:29.136Z,3.22
2023-03-13T09:47:04.619Z,3.05
2023-03-13T09:49:37.947Z,2.45
2023-03-13T09:52:13.313Z,3.63
2023-03-13T09:54:51.690Z,3.25
2023-03-13T09:57:39.985Z,2.53
2023-03-13T10:00:20.072Z,2.90
2023-03-13T10:03:18.720Z,3.25
2023-03-13T10:05:52.507Z,2.95
2023-03-13T10:08:23.493Z,3.10
2023-03-13T10:10:59.443Z,2.28
2023-03-13T10:13:41.783Z,3.05
2023-03-13T10:16:19.490Z,2.00
2023-03-13T10:18:51.869Z,2.53
2023-03-13T10:21:35.287Z,2.67
2023-03-13T10:24:06.384Z,2.10
2023-03-13T10:26:36.626Z,2.72
2023-03-13T10:29:26.839Z,2.78
2023-03-13T10:32:00.460Z,2.25
2023-03-13T10:34:30.670Z,2.95
2023-03-13T10:37:00.866Z,2.42
2023-03-13T10:39:30.134Z,2.78
2023-03-13T10:42:00.316Z,2.40
2023-03-13T10:44:34.162Z,2.53
2023-03-13T10:47:03.299Z,2.45
2023-03-13T10:49:32.211Z,1.90
2023-03-13T10:52:02.259Z,3.00
2023-03-13T10:54:32.363Z,2.75
2023-03-13T10:57:26.468Z,2.85
2023-03-13T10:59:54.697Z,2.05
2023-03-13T11:02:23.999Z,1.92
2023-03-13T11:04:54.172Z,2.30
2023-03-13T11:07:27.147Z,2.08
2023-03-13T11:10:18.534Z,2.60
2023-03-13T11:12:51.774Z,1.92
2023-03-13T11:15:41.714Z,3.17
2023-03-13T11:18:35.637Z,2.63
2023-03-13T11:21:17.322Z,1.42
2023-03-13T11:23:50.029Z,1.80
2023-03-13T11:26:29.964Z,2.38
2023-03-13T11:28:57.677Z,2.92
2023-03-13T11:31:30.067Z,2.33
2023-03-13T11:34:16.189Z,1.77
2023-03-13T11:37:18.774Z,1.42
2023-03-13T11:40:00.184Z,2.78
2023-03-13T11:42:49.653Z,1.27
2023-03-13T11:45:51.041Z,1.90
2023-03-13T11:48:42.844Z,1.98
2023-03-13T11:51:30.361Z,1.87
2023-03-13T11:54:26.096Z,2.35
2023-03-13T11:56:58.330Z,2.88
2023-03-13T11:59:42.519Z,2.72
2023-03-13T12:02:38.908Z,2.38
2023-03-13T12:05:16.719Z,2.13
2023-03-13T12:07:49.574Z,2.22
2023-03-13T12:10:41.437Z,2.30
2023-03-13T12:13:30.256Z,1.73
2023-03-13T12:16:01.343Z,1.80
2023-03-13T12:18:36.002Z,2.40
2023-03-13T12:21:23.635Z,1.95
2023-03-13T12:24:00.387Z,1.98
2023-03-13T12:26:50.268Z,2.17
2023-03-13T12:29:51.515Z,2.72
2023-03-13T12:32:34.340Z,2.40
2023-03-13T12:35:22.720Z,1.92
2023-03-13T12:37:54.698Z,1.60
2023-03-13T12:40:50.186Z,2.83
2023-03-13T12:43:19.354Z,2.35
2023-03-13T12:45:59.607Z,3.40
2023-03-13T12:48:48.835Z,2.08
2023-03-13T12:51:32.578Z,1.83
2023-03-13T12:54:44.386Z,2.30
2023-03-13T12:57:12.210Z,2.33
2023-03-13T12:59:47.688Z,3.03
2023-03-13T13:02:27.981Z,2.10
2023-03-13T13:04:58.432Z,1.98
2023-03-13T13:07:31.659Z,2.78
2023-03-13T13:10:11.683Z,2.63
2023-03-13T13:12:41.214Z,2.03
2023-03-13T13:15:26.411Z,2.10
2023-03-13T13:18:23.255Z,2.53
2023-03-13T13:21:22.111Z,2.92
2023-03-13T13:23:54.080Z,1.90
2023-03-13T13:26:26.913Z,2.67
2023-03-13T13:28:59.458Z,1.85
2023-03-13T13:31:51.364Z,2.10
2023-03-13T13:34:28.423Z,2.45
2023-03-13T13:36:57.481Z,1.90
2023-03-13T13:39:43.616Z,2.13
2023-03-13T13:42:30.767Z,2.63
2023-03-13T13:44:58.437Z,2.70
2023-03-13T13:47:28.466Z,2.63
2023-03-13T13:49:58.274Z,2.33
2023-03-13T13:53:15.169Z,3.20
2023-03-13T13:55:44.357Z,1.92
2023-03-13T13:58:21.400Z,2.15
2023-03-13T14:00:57.616Z,2.38
2023-03-13T14:03:32.026Z,2.17
2023-03-13T14:06:20.687Z,3.78
2023-03-13T14:08:52.301Z,1.80
2023-03-13T14:11:39.072Z,2.35
2023-03-13T14:14:12.029Z,2.25
2023-03-13T14:16:42.229Z,4.25
2023-03-13T14:19:34.611Z,4.00
2023-03-13T14:22:07.288Z,2.13
2023-03-13T14:24:35.869Z,2.88
2023-03-13T14:27:16.103Z,2.95
2023-03-13T14:30:07.495Z,2.63
2023-03-13T14:32:35.906Z,3.95
2023-03-13T14:35:09.058Z,2.80
2023-03-13T14:37:52.168Z,3.40
2023-03-13T14:40:21.529Z,3.53
2023-03-13T14:43:01.814Z,4.68
2023-03-13T14:45:39.351Z,3.90
2023-03-13T14:48:42.519Z,4.72
2023-03-13T14:51:27.250Z,4.28
2023-03-13T14:54:00.528Z,6.00
2023-03-13T14:56:36.368Z,6.05
2023-03-13T14:59:17.470Z,4.70
2023-03-13T15:01:46.347Z,5.93
2023-03-13T15:04:14.187Z,6.35
2023-03-13T15:06:41.976Z,6.30
2023-03-13T15:09:25.118Z,5.50
2023-03-13T15:12:00.466Z,6.70
2023-03-13T15:14:40.832Z,6.25
2023-03-13T15:17:17.925Z,6.35
2023-03-13T15:19:56.527Z,7.97
2023-03-13T15:22:37.065Z,5.03
2023-03-13T15:25:09.979Z,7.55
2023-03-13T15:27:37.767Z,7.18
2023-03-13T15:30:06.111Z,6.22
2023-03-13T15:32:39.367Z,6.80
2023-03-13T15:35:27.743Z,7.20
2023-03-13T15:37:57.390Z,6.65
2023-03-13T15:40:27.466Z,7.45
2023-03-13T15:42:55.722Z,6.82
2023-03-13T15:45:23.698Z,7.85
2023-03-13T15:47:51.406Z,9.77
2023-03-13T15:50:20.677Z,9.40
2023-03-13T15:52:48.365Z,9.40
2023-03-13T15:55:16.276Z,11.00
2023-03-13T15:57:50.592Z,11.55
2023-03-13T16:00:21.725Z,13.93
2023-03-13T16:02:49.764Z,13.05
2023-03-13T16:05:17.906Z,11.50
2023-03-13T16:07:45.678Z,11.73
2023-03-13T16:10:20.008Z,12.68
2023-03-13T16:12:47.861Z,11.90
2023-03-13T16:15:15.667Z,11.55
2023-03-13T16:17:43.556Z,14.32
2023-03-13T16:20:17.722Z,13.95
2023-03-13T16:22:45.535Z,14.57
2023-03-13T16:25:14.448Z,12.88
2023-03-13T16:27:42.590Z,14.98
2023-03-13T16:30:20.280Z,13.35
2023-03-13T16:32:48.345Z,13.73
2023-03-13T16:35:16.293Z,13.55
2023-03-13T16:37:44.308Z,13.73
2023-03-13T16:40:21.267Z,13.70
2023-03-13T16:42:49.148Z,13.73
2023-03-13T16:45:17.669Z,13.02
2023-03-13T16:47:45.989Z,11.15
2023-03-13T16:50:27.580Z,13.05
2023-03-13T16:52:55.697Z,14.15
2023-03-13T16:55:28.955Z,13.88
2023-03-13T16:58:00.238Z,15.65
2023-03-13T17:00:30.478Z,17.35
2023-03-13T17:02:58.572Z,17.98
2023-03-13T17:05:27.118Z,19.40
2023-03-13T17:07:55.114Z,17.48
2023-03-13T17:10:26.074Z,17.08
2023-03-13T17:12:54.300Z,16.95
2023-03-13T17:15:23.059Z,18.55
2023-03-13T17:17:52.255Z,17.73
2023-03-13T17:20:26.599Z,19.65
2023-03-13T17:22:56.529Z,17.75
2023-03-13T17:25:25.183Z,19.48
2023-03-13T17:27:53.647Z,18.35
2023-03-13T17:30:22.909Z,21.25
2023-03-13T17:32:50.758Z,20.83
2023-03-13T17:35:19.986Z,17.25
2023-03-13T17:37:48.672Z,21.75
2023-03-13T17:40:25.421Z,19.65
2023-03-13T17:42:53.403Z,20.65
2023-03-13T17:45:21.531Z,22.55
2023-03-13T17:47:50.502Z,21.23
2023-03-13T17:50:26.501Z,21.30
2023-03-13T17:52:55.107Z,21.00
2023-03-13T17:55:23.112Z,20.45
2023-03-13T17:57:52.381Z,19.00
2023-03-13T18:00:23.961Z,18.52
2023-03-13T18:02:52.035Z,20.60
2023-03-13T18:05:19.889Z,20.67
2023-03-13T18:07:48.942Z,21.15
2023-03-13T18:10:25.563Z,20.88
2023-03-13T18:12:53.539Z,19.02
2023-03-13T18:15:22.899Z,21.67
2023-03-13T18:17:51.317Z,22.30
2023-03-13T18:20:24.372Z,20.95
2023-03-13T18:22:52.484Z,20.35
2023-03-13T18:25:20.176Z,20.55
2023-03-13T18:27:47.904Z,21.77
2023-03-13T18:30:25.320Z,19.80
2023-03-13T18:32:53.466Z,20.25
2023-03-13T18:35:21.195Z,21.95
2023-03-13T18:37:49.028Z,22.10
2023-03-13T18:40:21.527Z,22.38
2023-03-13T18:45:19.450Z,23.48
2023-03-13T18:47:48.471Z,22.02
2023-03-13T18:50:26.461Z,21.85
2023-03-13T18:52:55.903Z,22.80
2023-03-13T18:55:25.265Z,21.88
2023-03-13T18:57:53.297Z,25.15
2023-03-13T19:00:24.841Z,27.02
2023-03-13T19:02:53.050Z,24.70
2023-03-13T19:05:21.000Z,24.80
2023-03-13T19:07:48.785Z,24.25
2023-03-13T19:10:20.204Z,24.58
2023-03-13T19:12:48.124Z,23.50
2023-03-13T19:15:16.548Z,22.17
2023-03-13T19:17:44.975Z,21.83
2023-03-13T19:20:18.840Z,22.73
2023-03-13T19:22:46.860Z,20.73
2023-03-13T19:25:17.412Z,19.73
2023-03-13T19:27:45.882Z,20.60
2023-03-13T19:30:21.862Z,18.98
2023-03-13T19:32:50.230Z,20.70
2023-03-13T19:35:22.281Z,18.65
2023-03-13T19:40:22.093Z,14.88
2023-03-13T19:42:50.070Z,15.90
2023-03-13T19:45:18.786Z,11.88
2023-03-13T19:47:46.548Z,11.02
2023-03-13T19:50:27.757Z,9.93
2023-03-13T19:52:55.630Z,11.50
